ZPPP/KMG METAR and TAF weather

Enter ICAO airport designator
Station Type Date Time Source
ZPPP METAR 2022/01/26 08:00 UTC NOAA

ZPPP 260800Z 24010G15MPS 9999 SCT026 15/00 Q1015 NOSIG


Station Type Date Time Source
ZPPP Decoded METAR 2022/01/26 08:00 UTC NOAA

Kunming, China (ZPPP) 25-01N 102-41E 1892M
Jan 26, 2022 - 03:00 AM EST / 2022.01.26 0800 UTC
Wind: from the WSW (240 degrees) at 22 MPH (19 KT) gusting to 34 MPH (29 KT):0
Visibility: greater than 7 mile(s):0
Sky conditions: partly cloudy
Temperature: 59 F (15 C)
Dew Point: 32 F (0 C)
Relative Humidity: 35%
Pressure (altimeter): 29.97 in. Hg (1015 hPa)
ob: ZPPP 260800Z 24010G15MPS 9999 SCT026 15/00 Q1015 NOSIG
cycle: 8

Station Type Date Time Source
ZPPP TAF 2022/01/26 06:03 UTC NOAA

TAF ZPPP 260311Z 2606/2706 23009MPS 9999 SCT023 BKN036 TX15/2608Z TN06/2623Z
BECMG 2611/2612 23004MPS
BECMG 2702/2703 23009MPS

Example: see airport list